Ingelmunster, Belgium
Current Conditions -  °F | °C
As of 3:00 PM on Friday 19 Dec 2014 (Local Time) from LFQQ Reporting Station
Broken Clouds Broken Clouds  
Wind Chill: 10°   Ceiling: 2800
Heat Index: 10°   Visibility: 6mi
Dew Point:   Wind: 16mph
Humidity: 76%   Direction: 310°NW
Pressure: 30"   Gusts: NA
Location:  50.92°N, 3.26°E
Report Text: LFQQ 191400Z 31014KT 9999 BKN028 10/06 Q1016 NOSIG
Loading
Personal Weather Stations






























Interactive Weather Map New forecast layout! Learn more

10-Day Weather Forecast

Advertisements
Track Severe Weather on mobile